»·PEaware :: WAT436 KCRQ-KLGB

WAT436 :: KCRQ-KLGB

FLIGHT INFORMATION

Flight Status: Arrived
Operator:
Walker Air Transport
More flights by this operator :: More flights under this callsign
Pilot: Dante R. (31808)
Aircraft: CESSNA 172 SKYHAWK
(C172)
More flights by this aircraft type
Origin: KCRQ McClellan-Palomar
United States
Destination: KLGB Long Beach
United States
More flights between these airports :: More routes between these airports
Route: OCN V23 MIDDS VPLMS SLI
File this flight plan on PilotEdge
Remarks: CALLSIGN = WALKER / / VISIT US AT HTTPS / / WALKERAIR.US
Altitude:
(Current/Filed)
6,500ft
Speed:
(Current/Filed)
100kts
Departed: 02-Dec-20 05:30 PM
Arrived: 02-Dec-20 06:18 PM
Distance/Time
Traveled:
60nm/0:48
Distance/Time
To Go:
Arrived

Flight Plot

Page will automatically refresh every two minutes.

Flight plan parsing failed; only flown route is shown


Map Options




Map Legend


Flown Route
Filed Route
Departure Airport
Arrival Airport
Navaid (VOR, NDB)
Fix

Horizontal Profiles

Position Reports

Time Latitude Longitude Heading Altitude Ground
Speed
02-Dec-20 16:55 33.126637 -117.275225 167 335ft 0kts
02-Dec-20 16:56 33.126637 -117.275225 167 335ft 0kts
02-Dec-20 16:57 33.126637 -117.275225 167 335ft 0kts
02-Dec-20 16:58 33.126637 -117.275225 167 335ft 0kts
02-Dec-20 16:59 33.126637 -117.275225 167 335ft 0kts
02-Dec-20 17:00 33.126637 -117.275225 167 335ft 0kts
02-Dec-20 17:01 33.126637 -117.275225 167 335ft 0kts
02-Dec-20 17:02 33.126637 -117.275225 167 335ft 0kts
02-Dec-20 17:03 33.126637 -117.275225 167 335ft 0kts
02-Dec-20 17:04 33.126637 -117.275225 167 335ft 0kts
02-Dec-20 17:05 33.126637 -117.275225 167 335ft 0kts
02-Dec-20 17:06 33.126637 -117.275225 167 335ft 0kts
02-Dec-20 17:07 33.126637 -117.275225 167 335ft 0kts
02-Dec-20 17:08 33.126637 -117.275225 167 335ft 0kts
02-Dec-20 17:09 33.126637 -117.275225 167 335ft 0kts
02-Dec-20 17:10 33.126637 -117.275225 167 335ft 0kts
02-Dec-20 17:11 33.126637 -117.275225 167 335ft 0kts
02-Dec-20 17:12 33.126637 -117.275225 167 335ft 0kts
02-Dec-20 17:13 33.126637 -117.275225 167 335ft 0kts
02-Dec-20 17:14 33.126637 -117.275225 167 335ft 0kts
02-Dec-20 17:15 33.126637 -117.275225 167 335ft 0kts
02-Dec-20 17:16 33.126637 -117.275225 167 335ft 0kts
02-Dec-20 17:17 33.126637 -117.275225 167 335ft 0kts
02-Dec-20 17:18 33.126637 -117.275225 167 335ft 0kts
02-Dec-20 17:19 33.126637 -117.275225 167 335ft 0kts
02-Dec-20 17:20 33.126658 -117.275061 350 335ft 3kts
02-Dec-20 17:21 33.126672 -117.275064 351 335ft 0kts
02-Dec-20 17:22 33.126672 -117.275064 351 335ft 0kts
02-Dec-20 17:23 33.127317 -117.275227 348 335ft 9kts
02-Dec-20 17:24 33.128651 -117.272408 38 335ft 0kts
02-Dec-20 17:25 33.128651 -117.272408 38 335ft 0kts
02-Dec-20 17:26 33.128651 -117.272408 38 335ft 0kts
02-Dec-20 17:27 33.128651 -117.272408 38 335ft 0kts
02-Dec-20 17:28 33.128651 -117.272408 38 335ft 0kts
02-Dec-20 17:29 33.129043 -117.275079 261 335ft 50kts
02-Dec-20 17:30 33.125449 -117.299553 253 859ft 78kts
02-Dec-20 17:31 33.120594 -117.326223 245 1398ft 85kts
02-Dec-20 17:32 33.130756 -117.351188 309 1965ft 90kts
02-Dec-20 17:33 33.147978 -117.372783 320 2528ft 90kts
02-Dec-20 17:34 33.166012 -117.393805 315 3083ft 93kts
02-Dec-20 17:35 33.185828 -117.414271 313 3595ft 91kts
02-Dec-20 17:36 33.204251 -117.436712 308 3881ft 95kts
02-Dec-20 17:37 33.222814 -117.460098 323 4270ft 97kts
02-Dec-20 17:38 33.237949 -117.474270 323 4623ft 92kts
02-Dec-20 17:39 33.244517 -117.481037 319 4715ft 95kts
02-Dec-20 17:40 33.264851 -117.500958 320 5122ft 96kts
02-Dec-20 17:41 33.284394 -117.522900 313 5569ft 97kts
02-Dec-20 17:42 33.304508 -117.543385 338 6021ft 93kts
02-Dec-20 17:43 33.328018 -117.557731 334 6462ft 95kts
02-Dec-20 17:44 33.350546 -117.576721 327 6607ft 101kts
02-Dec-20 17:45 33.372066 -117.597918 323 6598ft 100kts
02-Dec-20 17:46 33.391978 -117.621526 318 6563ft 101kts
02-Dec-20 17:47 33.411970 -117.644118 327 6544ft 97kts
02-Dec-20 17:48 33.427293 -117.660033 320 6515ft 97kts
02-Dec-20 17:49 33.446877 -117.682279 323 6524ft 96kts
02-Dec-20 17:50 33.466453 -117.703884 323 6549ft 96kts
02-Dec-20 17:51 33.482586 -117.717862 334 6572ft 94kts
02-Dec-20 17:53 33.504605 -117.735881 320 6572ft 98kts
02-Dec-20 17:54 33.525263 -117.757246 321 6578ft 98kts
02-Dec-20 17:55 33.544863 -117.780418 316 6585ft 99kts
02-Dec-20 17:56 33.563356 -117.804931 309 6589ft 101kts
02-Dec-20 17:57 33.579967 -117.831840 319 6597ft 99kts
02-Dec-20 17:58 33.599637 -117.855307 312 6606ft 100kts
02-Dec-20 17:59 33.616890 -117.881582 314 6605ft 98kts
02-Dec-20 18:00 33.635205 -117.908199 308 6255ft 104kts
02-Dec-20 18:01 33.651926 -117.934426 315 5815ft 106kts
02-Dec-20 18:02 33.675372 -117.953731 329 5292ft 101kts
02-Dec-20 18:03 33.699429 -117.971295 332 4790ft 100kts
02-Dec-20 18:04 33.722420 -117.989238 321 4462ft 92kts
02-Dec-20 18:05 33.739948 -118.011619 302 4365ft 91kts
02-Dec-20 18:06 33.753787 -118.037068 306 4418ft 90kts
02-Dec-20 18:07 33.769121 -118.061858 312 4082ft 94kts
02-Dec-20 18:08 33.788109 -118.085135 317 3493ft 101kts
02-Dec-20 18:09 33.806161 -118.106019 318 3276ft 82kts
02-Dec-20 18:10 33.821076 -118.126618 286 3166ft 84kts
02-Dec-20 18:10 33.817045 -118.148546 230 3108ft 90kts
02-Dec-20 18:12 33.792687 -118.156004 147 2604ft 89kts
02-Dec-20 18:12 33.776167 -118.138892 140 2013ft 100kts
02-Dec-20 18:14 33.769217 -118.108387 46 1102ft 89kts
02-Dec-20 18:14 33.784623 -118.109906 306 601ft 82kts
02-Dec-20 18:15 33.797778 -118.126969 316 296ft 66kts
02-Dec-20 18:16 33.809843 -118.141718 309 117ft 67kts
02-Dec-20 18:17 33.818502 -118.152460 290 47ft 15kts
02-Dec-20 18:18 33.818570 -118.153695 262 47ft 0kts
02-Dec-20 18:19 33.818570 -118.153695 262 47ft 0kts
02-Dec-20 18:20 33.818570 -118.153695 262 47ft 0kts
02-Dec-20 18:21 33.818570 -118.153695 262 47ft 0kts
02-Dec-20 18:22 33.818534 -118.155705 253 47ft 15kts
02-Dec-20 18:23 33.813730 -118.157275 179 47ft 24kts
02-Dec-20 18:24 33.812177 -118.155774 15 47ft 0kts
02-Dec-20 18:25 33.812177 -118.155774 15 47ft 0kts
02-Dec-20 18:26 33.812177 -118.155774 15 47ft 0kts
02-Dec-20 18:27 33.812177 -118.155774 15 47ft 0kts
02-Dec-20 18:28 33.812177 -118.155774 15 47ft 0kts
02-Dec-20 18:29 33.812177 -118.155774 15 47ft 0kts

Navigation Log

Ident Type
Flight plan parsing failed, navigation log unavailable